Time;durP1;ratioP1;P1;durP2;ratioP2;P2;SDS_P1;SDS_P2;PMS_P1;PMS_P2;Temp;Humidity;BMP_temperature;BMP_pressure;BME280_temperature;BME280_humidity;BME280_pressure;Samples;Min_cycle;Max_cycle;Signal;HPM_P1;HPM_P2
2022/12/28 00:02:24;;;;;;;131.30;64.38;;;5.80;99.90;;;;;;5096915;28;20024;-73
2022/12/28 00:04:50;;;;;;;133.73;64.68;;;5.90;99.90;;;;;;5096894;28;20032;-73
2022/12/28 00:07:16;;;;;;;142.32;68.43;;;5.90;99.90;;;;;;5096850;28;20115;-73
2022/12/28 00:09:42;;;;;;;133.30;63.90;;;6.00;99.90;;;;;;5096834;28;20107;-73
2022/12/28 00:12:08;;;;;;;121.13;60.88;;;6.00;99.90;;;;;;5096872;28;20063;-73
2022/12/28 00:14:34;;;;;;;122.03;61.47;;;6.10;99.90;;;;;;5096647;28;20032;-73
2022/12/28 00:17:00;;;;;;;128.07;61.53;;;6.10;99.90;;;;;;5096499;28;20457;-73
2022/12/28 00:19:26;;;;;;;120.40;60.35;;;6.00;99.90;;;;;;5096678;28;20107;-73
2022/12/28 00:21:53;;;;;;;118.20;59.88;;;5.90;99.90;;;;;;5096559;28;20024;-73
2022/12/28 00:24:23;;;;;;;129.00;63.70;;;5.80;99.90;;;;;;5096563;28;20481;-73
2022/12/28 00:26:49;;;;;;;116.60;58.28;;;5.80;99.90;;;;;;5096507;28;20123;-73
2022/12/28 00:29:16;;;;;;;120.93;61.10;;;5.80;99.90;;;;;;5095218;28;20064;-73
2022/12/28 00:31:44;;;;;;;134.15;67.50;;;5.90;99.90;;;;;;5096388;28;20111;-73
2022/12/28 00:34:10;;;;;;;184.43;87.43;;;5.80;99.90;;;;;;5096215;28;20028;-73
2022/12/28 00:36:36;;;;;;;169.52;82.40;;;5.90;99.90;;;;;;5096156;28;20054;-73
2022/12/28 00:39:02;;;;;;;164.25;80.18;;;5.90;99.90;;;;;;5096331;28;20032;-73
2022/12/28 00:41:28;;;;;;;151.05;74.28;;;5.80;99.90;;;;;;5096211;28;20084;-73
2022/12/28 00:43:54;;;;;;;142.95;70.30;;;5.70;99.90;;;;;;5094911;28;20032;-73
2022/12/28 00:46:20;;;;;;;151.02;74.65;;;5.60;99.90;;;;;;5096109;28;20027;-73
2022/12/28 00:48:46;;;;;;;178.32;86.65;;;5.60;99.90;;;;;;5096384;28;20054;-73
2022/12/28 00:51:18;;;;;;;172.10;84.15;;;5.40;99.90;;;;;;5094789;28;20034;-73
2022/12/28 00:53:44;;;;;;;167.60;82.13;;;5.50;99.90;;;;;;5096054;28;20020;-73
2022/12/28 00:56:16;;;;;;;149.60;76.03;;;5.50;99.90;;;;;;5095868;28;20016;-73
2022/12/28 00:58:42;;;;;;;159.98;77.05;;;5.50;99.90;;;;;;5095868;28;20546;-73
2022/12/28 01:01:14;;;;;;;168.02;83.30;;;5.60;99.90;;;;;;5094399;28;20040;-73
2022/12/28 01:03:41;;;;;;;168.45;84.55;;;5.60;99.90;;;;;;5094410;28;20118;-72
2022/12/28 01:06:09;;;;;;;191.30;91.45;;;5.50;99.90;;;;;;5094445;28;20091;-73
2022/12/28 01:08:39;;;;;;;192.05;96.60;;;5.50;99.90;;;;;;5094423;28;20062;-73
2022/12/28 01:11:07;;;;;;;274.70;125.73;;;5.40;99.90;;;;;;5095725;28;20030;-73
2022/12/28 01:13:33;;;;;;;299.25;132.48;;;5.40;99.90;;;;;;5095717;28;20059;-73
2022/12/28 01:16:08;;;;;;;257.80;115.38;;;5.50;99.90;;;;;;5094169;28;20036;-73
2022/12/28 01:18:34;;;;;;;255.27;120.70;;;5.60;99.90;;;;;;5095556;28;20035;-73
2022/12/28 01:21:06;;;;;;;290.48;131.25;;;5.60;99.90;;;;;;5094254;28;20024;-73
2022/12/28 01:23:32;;;;;;;247.27;116.22;;;5.60;99.90;;;;;;5095360;28;20045;-73
2022/12/28 01:26:01;;;;;;;203.00;95.78;;;5.60;99.90;;;;;;5095387;28;20032;-73
2022/12/28 01:28:28;;;;;;;175.23;87.15;;;5.70;99.90;;;;;;5093814;28;20054;-73
2022/12/28 01:30:54;;;;;;;176.63;85.05;;;5.70;99.90;;;;;;5094051;28;20436;-73
2022/12/28 01:33:20;;;;;;;164.77;80.40;;;5.60;99.90;;;;;;5095296;28;20052;-73
2022/12/28 01:35:46;;;;;;;159.13;76.85;;;5.70;99.90;;;;;;5093793;28;20489;-73
2022/12/28 01:38:12;;;;;;;185.77;89.93;;;5.70;99.90;;;;;;5093996;28;20034;-73
2022/12/28 01:40:42;;;;;;;285.60;121.15;;;5.60;99.90;;;;;;5095025;28;20036;-73
2022/12/28 01:43:13;;;;;;;263.50;116.53;;;5.60;99.90;;;;;;5095103;28;20071;-73
2022/12/28 01:45:40;;;;;;;246.75;110.75;;;5.70;99.90;;;;;;5095066;28;20116;-73
2022/12/28 01:48:17;;;;;;;230.98;103.85;;;5.50;99.90;;;;;;5094658;28;20066;-73
2022/12/28 01:50:43;;;;;;;191.88;91.28;;;5.30;99.90;;;;;;5094898;28;20473;-73
2022/12/28 01:53:10;;;;;;;182.90;88.00;;;5.20;99.90;;;;;;5094979;28;20024;-73
2022/12/28 01:55:40;;;;;;;154.07;78.10;;;5.20;99.90;;;;;;5094809;28;20062;-73
2022/12/28 01:58:18;;;;;;;159.65;77.95;;;5.20;99.90;;;;;;5093588;28;20035;-73
2022/12/28 02:00:44;;;;;;;144.73;72.95;;;5.20;99.90;;;;;;5093475;28;20056;-73
2022/12/28 02:03:24;;;;;;;161.05;80.88;;;5.10;99.90;;;;;;5094730;28;20027;-73
2022/12/28 02:05:54;;;;;;;157.25;78.88;;;5.00;99.90;;;;;;5094830;28;20024;-73
2022/12/28 02:08:34;;;;;;;144.73;71.93;;;5.00;99.90;;;;;;5094748;28;20067;-73
2022/12/28 02:11:00;;;;;;;153.98;75.15;;;4.90;99.90;;;;;;5094689;28;20036;-73
2022/12/28 02:13:27;;;;;;;259.63;106.57;;;4.90;99.90;;;;;;5094575;28;20393;-73
2022/12/28 02:15:56;;;;;;;375.05;140.00;;;4.80;99.90;;;;;;5093357;28;20032;-73
2022/12/28 02:18:24;;;;;;;447.50;163.50;;;4.80;99.90;;;;;;5094369;28;20039;-73
2022/12/28 02:21:14;;;;;;;203.43;91.43;;;4.70;99.90;;;;;;5093326;28;20028;-73
2022/12/28 02:24:08;;;;;;;200.53;85.70;;;4.80;99.90;;;;;;5094627;28;20020;-73
2022/12/28 02:26:42;;;;;;;235.85;94.30;;;4.90;99.90;;;;;;5094277;28;20418;-72
2022/12/28 02:29:27;;;;;;;214.80;90.47;;;4.80;99.90;;;;;;5094643;28;20039;-73
2022/12/28 02:32:31;;;;;;;197.98;84.93;;;4.60;99.90;;;;;;5094523;28;20063;-73
2022/12/28 02:35:07;;;;;;;222.73;93.53;;;4.40;99.90;;;;;;5071460;28;20531;-73
2022/12/28 02:37:43;;;;;;;232.70;101.25;;;4.30;99.90;;;;;;5094446;28;20035;-73
2022/12/28 02:40:19;;;;;;;213.95;93.05;;;4.20;99.90;;;;;;5094401;28;20058;-73
2022/12/28 02:42:46;;;;;;;154.55;73.28;;;4.20;99.90;;;;;;5094502;28;20485;-73
2022/12/28 02:51:10;;;;;;;147.85;70.20;;;4.00;99.90;;;;;;5094421;28;20024;-73
2022/12/28 02:53:48;;;;;;;158.32;74.22;;;3.80;99.90;;;;;;5094065;28;20032;-73
2022/12/28 02:56:24;;;;;;;174.00;81.82;;;3.70;99.90;;;;;;5094311;28;20036;-73
2022/12/28 02:59:19;;;;;;;161.98;73.28;;;3.50;99.90;;;;;;5094695;28;20020;-73
2022/12/28 03:02:14;;;;;;;144.10;66.68;;;3.50;99.90;;;;;;5096994;28;20516;-73
2022/12/28 03:05:09;;;;;;;143.73;67.45;;;3.50;99.90;;;;;;5087821;28;20032;-73
2022/12/28 03:10:28;;;;;;;137.68;64.53;;;3.40;99.90;;;;;;5097883;28;20067;-73
2022/12/28 03:12:53;;;;;;;145.32;71.30;;;3.30;99.90;;;;;;5096506;28;20438;-73
2022/12/28 03:15:29;;;;;;;142.25;67.32;;;3.30;99.90;;;;;;5096544;28;20028;-72
2022/12/28 03:32:05;;;;;;;133.85;61.17;;;3.20;99.90;;;;;;5096224;28;20028;-73
2022/12/28 03:34:32;;;;;;;122.35;56.22;;;3.20;99.90;;;;;;5096177;28;20020;-73
2022/12/28 03:37:10;;;;;;;158.93;62.55;;;3.10;99.90;;;;;;5096262;28;20047;-72
2022/12/28 03:39:50;;;;;;;141.40;63.83;;;2.90;99.90;;;;;;5096046;28;20032;-72
2022/12/28 03:45:31;;;;;;;119.68;60.35;;;2.90;99.90;;;;;;5095944;28;20449;-72
2022/12/28 03:48:01;;;;;;;96.40;50.53;;;2.80;99.90;;;;;;5095887;28;20500;-72
2022/12/28 03:50:29;;;;;;;102.05;53.33;;;2.90;99.90;;;;;;5095893;28;20158;-72
2022/12/28 03:52:57;;;;;;;110.20;53.33;;;2.70;99.90;;;;;;5097131;28;20433;-72
2022/12/28 03:55:24;;;;;;;118.80;58.22;;;2.60;99.90;;;;;;5095801;28;20564;-72
2022/12/28 03:57:51;;;;;;;114.90;51.78;;;2.60;99.90;;;;;;5095711;28;20031;-72
2022/12/28 04:00:22;;;;;;;115.22;54.10;;;2.60;99.90;;;;;;5095686;28;20020;-72
2022/12/28 04:02:50;;;;;;;100.78;51.30;;;2.60;99.90;;;;;;5095819;28;20411;-72
2022/12/28 04:05:17;;;;;;;113.07;52.85;;;2.50;99.90;;;;;;5095767;28;20032;-72
2022/12/28 04:07:43;;;;;;;135.07;60.15;;;2.50;99.90;;;;;;5097016;28;20043;-72
2022/12/28 04:10:10;;;;;;;136.93;62.40;;;2.50;99.90;;;;;;5095208;28;20048;-72
2022/12/28 04:12:36;;;;;;;132.85;61.20;;;2.40;99.90;;;;;;5096806;28;20035;-72
2022/12/28 04:15:20;;;;;;;135.85;64.32;;;2.40;99.90;;;;;;5097207;28;20114;-72
2022/12/28 04:17:47;;;;;;;135.02;62.70;;;2.40;99.90;;;;;;5095288;28;20028;-72
2022/12/28 04:20:13;;;;;;;147.38;67.03;;;2.40;99.90;;;;;;5095387;28;20024;-72
2022/12/28 04:22:39;;;;;;;130.30;59.25;;;2.40;99.90;;;;;;5095357;28;20048;-72
2022/12/28 04:25:06;;;;;;;122.90;60.30;;;2.40;99.90;;;;;;5095390;28;20397;-72
2022/12/28 04:27:33;;;;;;;141.13;67.97;;;2.40;99.90;;;;;;5094949;28;20044;-72
2022/12/28 04:30:06;;;;;;;140.43;67.40;;;2.50;99.90;;;;;;5095237;28;20028;-72
2022/12/28 04:32:34;;;;;;;115.38;56.92;;;2.60;99.90;;;;;;5095289;28;20028;-72
2022/12/28 04:35:03;;;;;;;98.75;49.40;;;2.60;99.90;;;;;;5095082;28;20024;-72
2022/12/28 04:37:35;;;;;;;97.43;45.10;;;2.60;99.90;;;;;;5095000;28;20063;-72
2022/12/28 04:40:02;;;;;;;83.63;41.35;;;2.50;99.90;;;;;;5096187;28;20020;-72
2022/12/28 04:42:28;;;;;;;66.07;35.72;;;2.50;99.90;;;;;;5096274;28;20347;-72
2022/12/28 04:44:54;;;;;;;72.57;35.00;;;2.50;99.90;;;;;;5096214;28;20036;-72
2022/12/28 04:47:20;;;;;;;113.53;47.40;;;2.50;99.90;;;;;;5096074;28;20059;-72
2022/12/28 04:49:45;;;;;;;123.65;52.25;;;2.40;99.90;;;;;;5096161;28;20101;-72
2022/12/28 04:52:12;;;;;;;93.38;43.50;;;2.40;99.90;;;;;;5095908;28;20127;-72
2022/12/28 04:54:38;;;;;;;85.03;44.72;;;2.30;99.90;;;;;;5095861;28;20031;-71
2022/12/28 04:57:04;;;;;;;104.57;48.28;;;2.20;99.90;;;;;;5095953;28;20031;-71
2022/12/28 04:59:30;;;;;;;79.85;37.70;;;2.20;99.90;;;;;;5095922;28;20059;-71
2022/12/28 05:01:56;;;;;;;90.32;44.67;;;2.10;99.90;;;;;;5095766;28;20086;-72
2022/12/28 05:04:21;;;;;;;75.78;41.58;;;2.10;99.90;;;;;;5095862;28;20020;-71
2022/12/28 05:06:47;;;;;;;80.85;44.47;;;2.00;99.90;;;;;;5095901;28;20028;-71
2022/12/28 05:09:13;;;;;;;81.88;43.30;;;2.00;99.90;;;;;;5095592;28;20035;-71
2022/12/28 05:11:39;;;;;;;119.70;60.50;;;2.10;99.90;;;;;;5095583;28;20066;-71
2022/12/28 05:14:05;;;;;;;108.47;56.25;;;2.10;99.90;;;;;;5095634;28;20028;-71
2022/12/28 05:16:31;;;;;;;103.10;53.95;;;2.10;99.90;;;;;;5095432;28;20032;-71
2022/12/28 05:18:57;;;;;;;106.43;56.50;;;2.10;99.90;;;;;;5095387;28;20049;-71
2022/12/28 05:21:25;;;;;;;110.85;58.60;;;2.20;99.90;;;;;;5094866;28;20111;-71
2022/12/28 05:23:52;;;;;;;110.30;56.42;;;2.10;99.90;;;;;;5095093;28;20027;-71
2022/12/28 05:26:23;;;;;;;88.05;45.80;;;2.10;99.90;;;;;;5095235;28;20021;-71
2022/12/28 05:28:49;;;;;;;131.00;61.13;;;2.10;99.90;;;;;;5095488;28;20462;-71
2022/12/28 05:31:20;;;;;;;109.25;52.10;;;2.00;99.90;;;;;;5095242;28;20058;-71
2022/12/28 05:33:47;;;;;;;170.38;82.65;;;2.00;99.90;;;;;;5095292;28;20028;-71
2022/12/28 05:36:19;;;;;;;141.48;65.63;;;1.90;99.90;;;;;;5095084;28;20106;-71
2022/12/28 05:38:45;;;;;;;137.20;57.33;;;1.90;99.90;;;;;;5095200;28;20062;-71
2022/12/28 05:41:20;;;;;;;168.07;59.65;;;1.90;99.90;;;;;;5095227;28;20032;-71
2022/12/28 05:43:47;;;;;;;197.95;68.93;;;2.00;99.90;;;;;;5095001;28;20024;-71
2022/12/28 05:46:17;;;;;;;236.45;77.63;;;2.20;99.90;;;;;;5095012;28;20085;-71
2022/12/28 05:48:44;;;;;;;268.00;78.47;;;2.20;99.90;;;;;;5095002;28;20431;-71
2022/12/28 05:51:12;;;;;;;180.88;65.90;;;2.30;99.90;;;;;;5095076;28;20032;-71
2022/12/28 05:53:39;;;;;;;207.35;75.85;;;2.20;99.90;;;;;;5094952;28;20043;-71
2022/12/28 05:56:09;;;;;;;244.40;92.00;;;2.20;99.90;;;;;;5094655;28;20030;-71
2022/12/28 05:58:35;;;;;;;265.30;97.97;;;2.20;99.90;;;;;;5093392;28;20070;-71
2022/12/28 06:01:09;;;;;;;244.07;95.07;;;2.00;99.90;;;;;;5094940;28;20059;-71
2022/12/28 06:03:35;;;;;;;244.07;95.80;;;2.00;99.90;;;;;;5094798;28;20385;-71
2022/12/28 06:06:10;;;;;;;240.40;91.28;;;2.00;99.90;;;;;;5094844;28;20020;-71
2022/12/28 06:08:37;;;;;;;186.25;74.97;;;2.00;99.90;;;;;;5094733;28;20035;-71
2022/12/28 06:11:06;;;;;;;204.63;83.70;;;2.10;99.90;;;;;;5094663;28;20024;-71
2022/12/28 06:13:33;;;;;;;238.07;84.65;;;2.10;99.90;;;;;;5094616;28;20028;-71
2022/12/28 06:16:04;;;;;;;232.73;88.60;;;2.00;99.90;;;;;;5094561;28;20047;-71
2022/12/28 06:18:30;;;;;;;178.20;74.78;;;2.00;99.90;;;;;;5094395;28;20040;-71
2022/12/28 06:21:02;;;;;;;188.02;78.55;;;2.00;99.90;;;;;;5094500;28;20054;-71
2022/12/28 06:23:28;;;;;;;158.70;69.72;;;2.10;99.90;;;;;;5094488;28;20028;-71
2022/12/28 06:25:56;;;;;;;181.27;76.40;;;2.20;99.90;;;;;;5094393;28;20043;-71
2022/12/28 06:28:22;;;;;;;126.72;61.83;;;2.10;99.90;;;;;;5094364;28;20096;-71
2022/12/28 06:30:48;;;;;;;129.85;60.85;;;2.30;99.90;;;;;;5094263;28;20123;-71
2022/12/28 06:33:14;;;;;;;152.63;69.85;;;2.30;99.90;;;;;;5093577;28;20662;-71
2022/12/28 06:35:40;;;;;;;132.88;62.42;;;2.30;99.90;;;;;;5098362;28;20169;-71
2022/12/28 06:38:06;;;;;;;131.52;60.53;;;2.30;99.90;;;;;;5100696;28;20032;-71
2022/12/28 06:40:32;;;;;;;124.60;58.28;;;2.10;99.90;;;;;;5113691;28;20020;-71
2022/12/28 06:42:58;;;;;;;111.10;54.10;;;2.10;99.90;;;;;;5119133;28;20055;-71
2022/12/28 06:45:24;;;;;;;117.55;59.13;;;2.10;99.90;;;;;;5110889;28;20051;-71
2022/12/28 06:47:51;;;;;;;129.85;62.83;;;2.30;99.90;;;;;;5099549;28;20020;-71
2022/12/28 06:50:18;;;;;;;126.32;63.33;;;2.20;99.90;;;;;;5109546;27;20518;-72
2022/12/28 06:52:45;;;;;;;125.15;62.17;;;2.20;99.90;;;;;;5099427;28;20099;-71
2022/12/28 06:55:11;;;;;;;127.90;61.03;;;2.20;99.90;;;;;;5102383;28;20115;-71
2022/12/28 06:57:37;;;;;;;131.57;63.33;;;2.10;99.90;;;;;;5099760;28;20111;-71
2022/12/28 07:00:04;;;;;;;137.30;65.13;;;2.10;99.90;;;;;;5098191;28;20385;-71
2022/12/28 07:02:30;;;;;;;123.05;58.95;;;2.20;99.90;;;;;;5097795;28;20059;-71
2022/12/28 07:04:56;;;;;;;171.93;75.13;;;2.10;99.90;;;;;;5097928;28;20481;-72
2022/12/28 07:07:22;;;;;;;167.52;76.40;;;2.10;99.90;;;;;;5098129;28;20172;-73
2022/12/28 07:09:47;;;;;;;175.57;79.72;;;2.10;99.90;;;;;;5097784;28;20047;-73
2022/12/28 07:12:13;;;;;;;307.55;119.13;;;2.20;99.90;;;;;;5097697;28;20036;-73
2022/12/28 07:14:39;;;;;;;192.40;82.63;;;2.20;99.90;;;;;;5097857;28;20024;-72
2022/12/28 07:17:05;;;;;;;140.45;64.85;;;2.20;99.90;;;;;;5097502;28;20032;-72
2022/12/28 07:19:31;;;;;;;182.70;77.97;;;2.10;99.90;;;;;;5097937;28;20519;-71
2022/12/28 07:21:57;;;;;;;175.18;78.05;;;2.10;99.90;;;;;;5097997;28;20028;-71
2022/12/28 07:24:23;;;;;;;202.13;98.45;;;2.10;99.90;;;;;;5097611;28;20028;-72
2022/12/28 07:26:49;;;;;;;166.80;83.88;;;2.20;99.90;;;;;;5105290;28;20070;-72
2022/12/28 07:29:15;;;;;;;152.40;71.22;;;2.30;99.90;;;;;;5117793;28;20028;-71
2022/12/28 07:31:41;;;;;;;134.02;67.40;;;2.40;99.90;;;;;;5117713;28;20024;-72
2022/12/28 07:34:07;;;;;;;109.75;55.13;;;2.50;99.90;;;;;;5117803;28;20032;-72
2022/12/28 07:36:33;;;;;;;104.78;52.97;;;2.40;99.90;;;;;;5117880;28;20460;-72
2022/12/28 07:38:59;;;;;;;118.03;55.20;;;2.90;99.90;;;;;;5117644;28;20039;-71
2022/12/28 07:41:28;;;;;;;108.90;50.90;;;3.60;99.90;;;;;;5117534;28;20061;-71
2022/12/28 07:43:55;;;;;;;105.30;52.22;;;4.60;99.90;;;;;;5115629;28;20030;-70
2022/12/28 07:46:23;;;;;;;106.20;50.13;;;5.50;99.90;;;;;;5116644;28;20106;-70
2022/12/28 07:48:50;;;;;;;95.25;45.10;;;6.90;99.90;;;;;;5117277;28;20030;-70
2022/12/28 07:51:19;;;;;;;89.60;43.67;;;7.50;99.90;;;;;;5116466;27;20023;-70
2022/12/28 07:53:47;;;;;;;101.43;46.22;;;8.20;99.90;;;;;;5116404;27;20019;-70
2022/12/28 07:56:14;;;;;;;107.03;47.38;;;8.90;99.90;;;;;;5117534;28;20032;-69
2022/12/28 07:58:40;;;;;;;119.28;58.88;;;9.30;99.90;;;;;;5116731;27;20024;-69
2022/12/28 08:01:07;;;;;;;137.63;60.42;;;9.90;95.70;;;;;;5116328;28;20088;-69
2022/12/28 08:03:34;;;;;;;140.00;69.55;;;10.60;97.90;;;;;;5116923;28;20020;-71
2022/12/28 08:06:07;;;;;;;129.23;66.00;;;10.90;92.40;;;;;;5116384;28;20020;-70
2022/12/28 08:08:37;;;;;;;158.57;74.40;;;10.70;93.80;;;;;;5116922;28;20039;-71
2022/12/28 08:11:05;;;;;;;129.43;67.28;;;11.50;92.80;;;;;;5116511;28;20063;-71
2022/12/28 08:13:33;;;;;;;150.50;68.22;;;12.50;89.70;;;;;;5116371;28;20027;-71
2022/12/28 08:15:59;;;;;;;140.70;55.97;;;13.50;75.70;;;;;;5116113;28;20428;-71
2022/12/28 08:18:25;;;;;;;113.03;52.22;;;14.40;69.90;;;;;;5116699;28;20039;-71
2022/12/28 08:20:52;;;;;;;99.20;51.25;;;13.60;70.80;;;;;;5116185;28;20027;-71
2022/12/28 08:23:18;;;;;;;117.43;53.35;;;13.60;70.80;;;;;;5113188;28;20059;-71
2022/12/28 08:25:44;;;;;;;129.05;53.97;;;13.90;68.80;;;;;;5116808;28;20023;-71
2022/12/28 08:28:09;;;;;;;124.13;55.15;;;13.00;72.60;;;;;;5116273;28;20044;-71
2022/12/28 08:30:35;;;;;;;119.70;59.80;;;14.10;69.80;;;;;;5115935;28;20057;-71
2022/12/28 08:33:01;;;;;;;117.35;59.80;;;14.80;65.40;;;;;;5115857;28;20027;-71
2022/12/28 08:35:27;;;;;;;114.18;61.22;;;14.90;62.30;;;;;;5115940;28;20116;-71
2022/12/28 08:37:54;;;;;;;120.00;62.45;;;14.50;62.70;;;;;;5116421;28;20024;-72
2022/12/28 08:40:26;;;;;;;131.95;67.53;;;15.00;62.20;;;;;;5116806;28;20042;-72
2022/12/28 08:42:58;;;;;;;143.23;78.80;;;14.50;63.60;;;;;;5116662;28;20104;-72
2022/12/28 08:45:25;;;;;;;177.82;89.13;;;13.30;70.40;;;;;;5116462;28;20028;-71
2022/12/28 08:47:52;;;;;;;154.50;84.18;;;13.30;71.20;;;;;;5115910;28;20059;-72
2022/12/28 08:50:18;;;;;;;190.95;101.72;;;14.30;70.00;;;;;;5116449;28;20024;-72
2022/12/28 08:52:44;;;;;;;132.07;72.25;;;14.00;66.50;;;;;;5115578;28;20124;-72
2022/12/28 08:55:10;;;;;;;135.50;72.63;;;14.60;68.00;;;;;;5115744;28;20019;-72
2022/12/28 08:57:36;;;;;;;141.23;77.45;;;15.30;64.60;;;;;;5114715;27;20459;-73
2022/12/28 09:00:05;;;;;;;147.45;79.00;;;15.00;63.60;;;;;;5115960;28;20016;-72
2022/12/28 09:02:31;;;;;;;148.60;83.45;;;14.40;65.10;;;;;;5115810;28;20507;-72
2022/12/28 09:04:57;;;;;;;148.70;90.30;;;15.10;64.60;;;;;;5116057;28;20024;-72
2022/12/28 09:07:23;;;;;;;191.27;103.97;;;15.20;64.70;;;;;;5116064;28;20028;-73
2022/12/28 09:09:48;;;;;;;208.55;107.03;;;15.20;63.50;;;;;;5115512;28;20031;-73
2022/12/28 09:12:14;;;;;;;206.73;108.45;;;14.90;64.80;;;;;;5115880;28;20023;-73
2022/12/28 09:14:40;;;;;;;218.77;107.68;;;15.00;65.30;;;;;;5116023;28;20031;-73
2022/12/28 09:17:06;;;;;;;191.15;102.70;;;15.00;65.70;;;;;;5115103;28;20146;-73
2022/12/28 09:19:32;;;;;;;188.13;99.72;;;15.30;65.10;;;;;;5115511;28;20034;-73
2022/12/28 09:21:58;;;;;;;176.10;91.70;;;15.90;62.80;;;;;;5112157;28;20059;-73
2022/12/28 09:24:24;;;;;;;170.43;89.15;;;15.80;60.60;;;;;;5115478;28;20131;-73
2022/12/28 09:26:51;;;;;;;166.05;92.45;;;15.80;61.70;;;;;;5114359;28;20067;-73
2022/12/28 09:29:17;;;;;;;164.57;84.20;;;15.10;62.20;;;;;;5114830;28;20031;-73
2022/12/28 09:31:43;;;;;;;149.90;84.90;;;15.40;62.70;;;;;;5115083;28;20031;-73
2022/12/28 09:34:12;;;;;;;183.38;94.55;;;15.50;60.60;;;;;;5115144;28;20523;-73
2022/12/28 09:36:42;;;;;;;184.35;93.93;;;15.20;63.20;;;;;;5115516;28;20055;-73
2022/12/28 09:39:15;;;;;;;225.73;98.53;;;14.80;65.10;;;;;;5115310;28;20027;-74
2022/12/28 09:41:48;;;;;;;231.23;93.63;;;15.00;64.90;;;;;;5115232;28;20023;-73
2022/12/28 09:44:21;;;;;;;219.68;85.38;;;15.50;63.10;;;;;;5115252;28;20031;-73
2022/12/28 09:46:50;;;;;;;202.38;85.35;;;15.80;62.40;;;;;;5115301;28;20038;-73
2022/12/28 09:49:19;;;;;;;169.65;78.60;;;15.20;64.30;;;;;;5115132;28;20108;-73
2022/12/28 09:51:59;;;;;;;172.88;76.72;;;15.40;63.50;;;;;;5114730;28;20031;-74
2022/12/28 09:54:25;;;;;;;169.63;75.95;;;15.70;62.70;;;;;;5115002;28;20054;-74
2022/12/28 09:56:52;;;;;;;153.70;72.55;;;15.80;63.50;;;;;;5114786;28;20063;-74
2022/12/28 09:59:26;;;;;;;163.77;74.85;;;15.60;63.50;;;;;;5114672;28;20023;-74
2022/12/28 10:02:01;;;;;;;145.38;68.07;;;15.80;63.00;;;;;;5113386;28;20084;-74
2022/12/28 10:04:27;;;;;;;188.32;72.25;;;16.00;63.90;;;;;;5114920;28;20106;-74
2022/12/28 10:06:53;;;;;;;186.02;70.93;;;15.80;63.60;;;;;;5113465;28;20063;-74
2022/12/28 10:09:28;;;;;;;166.95;69.05;;;16.10;60.90;;;;;;5114191;28;20043;-74
2022/12/28 10:11:54;;;;;;;144.02;66.90;;;16.20;60.00;;;;;;5115094;28;20030;-74
2022/12/28 10:14:26;;;;;;;123.40;63.97;;;15.90;61.60;;;;;;5096361;28;20023;-74
2022/12/28 10:16:53;;;;;;;125.25;65.57;;;16.10;61.90;;;;;;5114866;28;20027;-74
2022/12/28 10:19:23;;;;;;;119.78;68.55;;;16.00;63.20;;;;;;5114722;28;20050;-74
2022/12/28 10:22:15;;;;;;;118.45;65.35;;;16.20;65.30;;;;;;5113455;28;20476;-74
2022/12/28 10:24:57;;;;;;;104.38;58.03;;;16.70;61.50;;;;;;5113997;28;20039;-74
2022/12/28 10:27:28;;;;;;;93.80;51.22;;;16.60;60.10;;;;;;5114387;28;20442;-74
2022/12/28 10:29:57;;;;;;;91.32;49.22;;;16.50;60.00;;;;;;5113324;28;20075;-74
2022/12/28 10:32:23;;;;;;;96.72;51.38;;;16.40;61.20;;;;;;5113601;28;20050;-74
2022/12/28 10:34:55;;;;;;;77.57;47.20;;;16.40;62.30;;;;;;5113207;28;20032;-74
2022/12/28 10:37:24;;;;;;;82.10;45.50;;;15.70;63.20;;;;;;5114344;28;20034;-75
2022/12/28 10:39:53;;;;;;;78.28;43.67;;;16.20;63.20;;;;;;5114855;28;20027;-75
2022/12/28 10:42:29;;;;;;;80.82;42.78;;;15.80;63.50;;;;;;5114859;28;20023;-74
2022/12/28 10:45:06;;;;;;;81.25;44.17;;;15.90;65.10;;;;;;5112787;28;20028;-74
2022/12/28 10:47:40;;;;;;;67.70;40.85;;;16.00;66.20;;;;;;5114403;28;20023;-74
2022/12/28 10:50:06;;;;;;;72.70;40.45;;;16.50;65.50;;;;;;5113338;28;20127;-74
2022/12/28 10:52:32;;;;;;;75.78;41.83;;;16.60;62.00;;;;;;5113921;28;20375;-74
2022/12/28 10:54:58;;;;;;;78.00;43.10;;;16.80;61.90;;;;;;5112894;28;20031;-74
2022/12/28 10:57:28;;;;;;;69.97;41.13;;;17.00;61.50;;;;;;5112146;28;20041;-74
2022/12/28 11:00:20;;;;;;;85.40;42.50;;;16.80;63.80;;;;;;5114340;28;20104;-74
2022/12/28 11:02:46;;;;;;;78.57;42.20;;;17.20;60.40;;;;;;5112856;28;20354;-74
2022/12/28 11:05:23;;;;;;;71.55;39.38;;;17.70;59.10;;;;;;5114284;28;20039;-74
2022/12/28 11:08:03;;;;;;;75.15;41.30;;;17.90;58.50;;;;;;5113853;28;20051;-75
2022/12/28 11:10:31;;;;;;;73.88;38.53;;;18.00;56.80;;;;;;5111041;28;20028;-75
2022/12/28 11:12:59;;;;;;;80.95;39.33;;;18.10;57.20;;;;;;5113230;28;20019;-74
2022/12/28 11:15:30;;;;;;;72.90;37.30;;;17.80;58.10;;;;;;5113866;28;20023;-75
2022/12/28 11:18:20;;;;;;;75.50;38.78;;;17.70;58.00;;;;;;5112733;28;20023;-75
2022/12/28 11:20:51;;;;;;;70.93;36.83;;;17.30;58.40;;;;;;5114406;28;20037;-75
2022/12/28 11:23:30;;;;;;;59.40;34.78;;;17.60;56.90;;;;;;5116659;28;20260;-72
2022/12/28 11:25:57;;;;;;;65.78;36.03;;;17.20;59.30;;;;;;5117583;28;20567;-72
2022/12/28 11:28:23;;;;;;;68.90;36.92;;;18.10;56.70;;;;;;5117782;28;20079;-72
2022/12/28 11:30:51;;;;;;;64.90;35.60;;;18.30;56.70;;;;;;5117944;28;20160;-72
2022/12/28 11:33:32;;;;;;;63.53;33.95;;;18.40;55.70;;;;;;5116141;28;20056;-75
2022/12/28 11:35:59;;;;;;;64.15;34.30;;;18.00;56.30;;;;;;5098794;28;20222;-75
2022/12/28 11:38:43;;;;;;;62.92;33.10;;;17.90;56.80;;;;;;5117405;28;20026;-75
2022/12/28 11:41:35;;;;;;;57.83;32.22;;;17.60;55.80;;;;;;5116250;28;20031;-75
2022/12/28 11:44:03;;;;;;;68.18;34.15;;;18.10;56.10;;;;;;5099325;28;20043;-75
2022/12/28 11:46:29;;;;;;;62.53;32.05;;;18.10;55.90;;;;;;5098033;28;20028;-75
2022/12/28 11:48:58;;;;;;;66.43;31.80;;;18.30;56.90;;;;;;5095906;28;20036;-75
2022/12/28 11:51:29;;;;;;;47.13;26.13;;;18.60;55.30;;;;;;5097216;28;20032;-75
2022/12/28 11:53:57;;;;;;;48.85;24.85;;;18.80;54.00;;;;;;5096878;28;20028;-75
2022/12/28 11:57:01;;;;;;;43.78;23.67;;;19.10;50.80;;;;;;5097024;28;20032;-75
2022/12/28 11:59:30;;;;;;;50.95;26.45;;;19.40;49.90;;;;;;5054170;28;20403;-75
2022/12/28 12:02:00;;;;;;;39.00;20.40;;;19.90;49.50;;;;;;5054260;28;20037;-75
2022/12/28 12:04:42;;;;;;;23.60;13.93;;;19.70;48.10;;;;;;5037667;28;20057;-75
2022/12/28 12:07:24;;;;;;;18.45;12.07;;;19.60;46.10;;;;;;5020717;28;20068;-75
2022/12/28 12:10:32;;;;;;;17.75;9.10;;;20.50;43.80;;;;;;5070902;28;20037;-75
2022/12/28 12:13:00;;;;;;;29.08;10.95;;;19.60;42.20;;;;;;4992436;28;20031;-75
2022/12/28 12:15:41;;;;;;;17.63;6.13;;;19.40;44.60;;;;;;4991826;28;20049;-75
2022/12/28 12:18:18;;;;;;;12.52;4.80;;;19.70;42.90;;;;;;4977996;28;20050;-75
2022/12/28 12:21:06;;;;;;;14.02;5.50;;;19.10;43.70;;;;;;4994719;28;20046;-75
2022/12/28 12:23:35;;;;;;;7.78;4.70;;;17.60;46.00;;;;;;4994653;28;20061;-75
2022/12/28 12:26:43;;;;;;;14.35;5.05;;;19.00;44.40;;;;;;4978173;28;20030;-75
2022/12/28 12:29:15;;;;;;;10.90;4.85;;;18.80;45.30;;;;;;4996661;28;20038;-75
2022/12/28 12:31:47;;;;;;;10.07;3.95;;;18.70;45.00;;;;;;5033704;28;20139;-75
2022/12/28 12:34:25;;;;;;;8.30;4.07;;;19.00;44.40;;;;;;5018608;28;20041;-75
2022/12/28 12:37:10;;;;;;;13.70;4.45;;;19.10;44.50;;;;;;5048442;28;20175;-75
2022/12/28 12:39:49;;;;;;;12.10;4.15;;;19.90;43.40;;;;;;5048049;28;20040;-75
2022/12/28 12:42:53;;;;;;;12.55;3.92;;;20.20;41.20;;;;;;5053549;28;20498;-75
2022/12/28 12:45:40;;;;;;;8.98;4.30;;;20.40;42.40;;;;;;4994124;28;20448;-75
2022/12/28 12:48:16;;;;;;;21.27;7.78;;;20.40;42.50;;;;;;5052702;28;20491;-75
2022/12/28 12:51:02;;;;;;;18.63;5.72;;;19.60;42.70;;;;;;5033162;28;20033;-75
2022/12/28 12:54:03;;;;;;;20.70;6.70;;;19.80;42.70;;;;;;5019560;28;20520;-75
2022/12/28 12:56:52;;;;;;;16.02;7.07;;;19.10;43.50;;;;;;4993776;28;20045;-75
2022/12/28 12:59:23;;;;;;;19.33;6.93;;;19.30;43.20;;;;;;5034124;28;20036;-75
2022/12/28 13:02:10;;;;;;;8.60;4.70;;;20.00;43.60;;;;;;5034772;28;20153;-75
2022/12/28 13:04:41;;;;;;;7.30;4.00;;;20.30;42.50;;;;;;5033187;28;20128;-76
2022/12/28 13:07:18;;;;;;;9.45;5.20;;;20.40;41.80;;;;;;5033235;28;20625;-76
2022/12/28 13:09:44;;;;;;;20.25;6.50;;;20.60;41.80;;;;;;5050208;28;20039;-75